sensor_id;sensor_type;location;lat;lon;timestamp;pressure;altitude;pressure_sealevel;temperature;humidity
64243;BME280;50573;51.512;5.386;2023-03-09T00:03:54;98749.88;;;1.26;100.00
64243;BME280;50573;51.512;5.386;2023-03-09T00:13:57;98750.09;;;1.31;100.00
64243;BME280;50573;51.512;5.386;2023-03-09T00:24:03;98759.25;;;1.34;100.00
64243;BME280;50573;51.512;5.386;2023-03-09T00:34:06;98788.00;;;1.33;100.00
64243;BME280;50573;51.512;5.386;2023-03-09T00:44:12;98798.56;;;1.24;100.00
64243;BME280;50573;51.512;5.386;2023-03-09T00:54:16;98803.91;;;1.40;100.00
64243;BME280;50573;51.512;5.386;2023-03-09T01:04:20;98840.72;;;1.40;100.00
64243;BME280;50573;51.512;5.386;2023-03-09T01:14:23;98883.19;;;1.41;100.00
64243;BME280;50573;51.512;5.386;2023-03-09T01:24:27;98874.00;;;1.42;100.00
64243;BME280;50573;51.512;5.386;2023-03-09T01:34:31;98914.13;;;1.46;100.00
64243;BME280;50573;51.512;5.386;2023-03-09T01:44:35;98903.81;;;1.44;100.00
64243;BME280;50573;51.512;5.386;2023-03-09T01:54:43;98924.44;;;1.48;100.00
64243;BME280;50573;51.512;5.386;2023-03-09T02:04:52;98952.03;;;1.48;100.00
64243;BME280;50573;51.512;5.386;2023-03-09T02:14:57;98952.53;;;1.59;100.00
64243;BME280;50573;51.512;5.386;2023-03-09T02:25:09;98939.47;;;1.61;100.00
64243;BME280;50573;51.512;5.386;2023-03-09T02:35:15;98961.28;;;1.63;100.00
64243;BME280;50573;51.512;5.386;2023-03-09T02:45:25;98972.50;;;1.58;100.00
64243;BME280;50573;51.512;5.386;2023-03-09T02:55:32;98982.41;;;1.61;100.00
64243;BME280;50573;51.512;5.386;2023-03-09T03:05:38;98969.13;;;1.54;100.00
64243;BME280;50573;51.512;5.386;2023-03-09T03:15:43;98976.38;;;1.57;100.00
64243;BME280;50573;51.512;5.386;2023-03-09T03:25:46;98990.28;;;1.52;100.00
64243;BME280;50573;51.512;5.386;2023-03-09T03:35:51;99015.72;;;1.44;100.00
64243;BME280;50573;51.512;5.386;2023-03-09T03:45:54;99049.22;;;1.56;100.00
64243;BME280;50573;51.512;5.386;2023-03-09T03:56:00;99051.81;;;1.59;100.00
64243;BME280;50573;51.512;5.386;2023-03-09T04:06:06;99052.22;;;1.58;100.00
64243;BME280;50573;51.512;5.386;2023-03-09T04:16:11;99071.00;;;1.58;100.00
64243;BME280;50573;51.512;5.386;2023-03-09T04:26:14;99084.47;;;1.54;100.00
64243;BME280;50573;51.512;5.386;2023-03-09T04:36:36;99101.63;;;1.60;100.00
64243;BME280;50573;51.512;5.386;2023-03-09T04:46:40;99114.00;;;1.54;100.00
64243;BME280;50573;51.512;5.386;2023-03-09T04:56:47;99128.03;;;1.62;100.00
64243;BME280;50573;51.512;5.386;2023-03-09T05:06:55;99138.97;;;1.51;100.00
64243;BME280;50573;51.512;5.386;2023-03-09T05:17:02;99164.41;;;1.43;100.00
64243;BME280;50573;51.512;5.386;2023-03-09T05:27:05;99173.00;;;1.54;100.00
64243;BME280;50573;51.512;5.386;2023-03-09T05:37:11;99173.41;;;1.53;100.00
64243;BME280;50573;51.512;5.386;2023-03-09T05:47:14;99161.66;;;1.47;100.00
64243;BME280;50573;51.512;5.386;2023-03-09T05:57:21;99177.28;;;1.52;100.00
64243;BME280;50573;51.512;5.386;2023-03-09T06:07:28;99184.16;;;1.53;100.00
64243;BME280;50573;51.512;5.386;2023-03-09T06:17:33;99194.88;;;1.53;100.00
64243;BME280;50573;51.512;5.386;2023-03-09T06:27:38;99223.41;;;1.66;100.00
64243;BME280;50573;51.512;5.386;2023-03-09T06:37:42;99230.84;;;1.78;100.00
64243;BME280;50573;51.512;5.386;2023-03-09T06:47:51;99256.41;;;1.86;100.00
64243;BME280;50573;51.512;5.386;2023-03-09T06:57:57;99274.00;;;1.87;100.00
64243;BME280;50573;51.512;5.386;2023-03-09T07:08:01;99310.00;;;1.90;100.00
64243;BME280;50573;51.512;5.386;2023-03-09T07:18:06;99340.25;;;1.94;100.00
64243;BME280;50573;51.512;5.386;2023-03-09T07:28:09;99342.03;;;2.00;100.00
64243;BME280;50573;51.512;5.386;2023-03-09T07:38:13;99364.69;;;1.99;100.00
64243;BME280;50573;51.512;5.386;2023-03-09T07:48:16;99380.91;;;2.15;100.00
64243;BME280;50573;51.512;5.386;2023-03-09T07:58:21;99383.00;;;2.27;100.00
64243;BME280;50573;51.512;5.386;2023-03-09T08:08:25;99400.09;;;2.37;100.00
64243;BME280;50573;51.512;5.386;2023-03-09T08:18:30;99419.56;;;2.44;100.00
64243;BME280;50573;51.512;5.386;2023-03-09T08:28:33;99425.59;;;2.48;100.00
64243;BME280;50573;51.512;5.386;2023-03-09T08:38:37;99444.97;;;2.59;100.00
64243;BME280;50573;51.512;5.386;2023-03-09T08:48:40;99450.66;;;2.65;100.00
64243;BME280;50573;51.512;5.386;2023-03-09T08:58:45;99484.81;;;2.88;100.00
64243;BME280;50573;51.512;5.386;2023-03-09T09:08:49;99488.81;;;2.99;100.00
64243;BME280;50573;51.512;5.386;2023-03-09T09:18:54;99509.56;;;2.99;100.00
64243;BME280;50573;51.512;5.386;2023-03-09T09:28:57;99508.91;;;3.14;100.00
64243;BME280;50573;51.512;5.386;2023-03-09T09:39:04;99518.34;;;3.42;100.00
64243;BME280;50573;51.512;5.386;2023-03-09T09:49:13;99521.00;;;3.45;100.00
64243;BME280;50573;51.512;5.386;2023-03-09T09:59:29;99525.78;;;3.54;100.00
64243;BME280;50573;51.512;5.386;2023-03-09T10:09:37;99533.06;;;3.73;100.00
64243;BME280;50573;51.512;5.386;2023-03-09T10:19:56;99534.69;;;4.06;100.00
64243;BME280;50573;51.512;5.386;2023-03-09T10:30:04;99526.81;;;4.31;100.00
64243;BME280;50573;51.512;5.386;2023-03-09T10:40:19;99528.97;;;4.36;100.00
64243;BME280;50573;51.512;5.386;2023-03-09T10:50:26;99541.78;;;4.64;100.00
64243;BME280;50573;51.512;5.386;2023-03-09T11:00:31;99534.00;;;4.82;100.00
64243;BME280;50573;51.512;5.386;2023-03-09T11:10:35;99538.72;;;4.94;100.00
64243;BME280;50573;51.512;5.386;2023-03-09T11:20:40;99535.09;;;4.85;100.00
64243;BME280;50573;51.512;5.386;2023-03-09T11:30:43;99534.47;;;5.38;100.00
64243;BME280;50573;51.512;5.386;2023-03-09T11:40:52;99516.94;;;5.01;100.00
64243;BME280;50573;51.512;5.386;2023-03-09T11:51:05;99533.16;;;4.85;100.00
64243;BME280;50573;51.512;5.386;2023-03-09T12:01:18;99531.22;;;4.86;100.00
64243;BME280;50573;51.512;5.386;2023-03-09T12:11:29;99530.09;;;4.99;100.00
64243;BME280;50573;51.512;5.386;2023-03-09T12:21:36;99519.00;;;4.97;100.00
64243;BME280;50573;51.512;5.386;2023-03-09T12:31:40;99495.09;;;4.67;100.00
64243;BME280;50573;51.512;5.386;2023-03-09T12:41:58;99481.28;;;4.49;100.00
64243;BME280;50573;51.512;5.386;2023-03-09T13:02:48;99435.88;;;4.48;100.00
64243;BME280;50573;51.512;5.386;2023-03-09T13:13:28;99414.94;;;4.39;100.00
64243;BME280;50573;51.512;5.386;2023-03-09T13:23:33;99434.38;;;4.47;100.00
64243;BME280;50573;51.512;5.386;2023-03-09T13:33:42;99424.97;;;4.22;100.00
64243;BME280;50573;51.512;5.386;2023-03-09T13:43:49;99423.72;;;4.27;100.00
64243;BME280;50573;51.512;5.386;2023-03-09T13:53:53;99406.53;;;4.21;100.00
64243;BME280;50573;51.512;5.386;2023-03-09T14:03:58;99382.78;;;4.32;100.00
64243;BME280;50573;51.512;5.386;2023-03-09T14:14:04;99369.22;;;4.36;100.00
64243;BME280;50573;51.512;5.386;2023-03-09T14:24:21;99348.69;;;4.54;100.00
64243;BME280;50573;51.512;5.386;2023-03-09T14:34:26;99352.81;;;4.59;100.00
64243;BME280;50573;51.512;5.386;2023-03-09T14:44:33;99358.69;;;4.82;100.00
64243;BME280;50573;51.512;5.386;2023-03-09T14:54:36;99335.34;;;4.63;100.00
64243;BME280;50573;51.512;5.386;2023-03-09T15:04:43;99338.75;;;4.51;100.00
64243;BME280;50573;51.512;5.386;2023-03-09T15:14:47;99315.63;;;4.66;100.00
64243;BME280;50573;51.512;5.386;2023-03-09T15:24:52;99300.72;;;4.62;100.00
64243;BME280;50573;51.512;5.386;2023-03-09T15:34:55;99277.53;;;4.64;100.00
64243;BME280;50573;51.512;5.386;2023-03-09T15:44:59;99255.53;;;4.78;100.00
64243;BME280;50573;51.512;5.386;2023-03-09T15:55:02;99238.19;;;4.79;100.00
64243;BME280;50573;51.512;5.386;2023-03-09T16:05:09;99237.09;;;4.89;100.00
64243;BME280;50573;51.512;5.386;2023-03-09T16:15:12;99208.94;;;4.90;100.00
64243;BME280;50573;51.512;5.386;2023-03-09T16:25:17;99183.78;;;4.93;100.00
64243;BME280;50573;51.512;5.386;2023-03-09T16:35:22;99170.31;;;4.93;100.00
64243;BME280;50573;51.512;5.386;2023-03-09T16:45:27;99160.16;;;4.97;100.00
64243;BME280;50573;51.512;5.386;2023-03-09T16:55:30;99141.19;;;4.88;100.00
64243;BME280;50573;51.512;5.386;2023-03-09T17:05:34;99121.53;;;5.00;100.00
64243;BME280;50573;51.512;5.386;2023-03-09T17:15:42;99105.00;;;4.98;100.00
64243;BME280;50573;51.512;5.386;2023-03-09T17:25:46;99090.88;;;5.07;100.00
64243;BME280;50573;51.512;5.386;2023-03-09T17:35:50;99091.03;;;5.12;100.00
64243;BME280;50573;51.512;5.386;2023-03-09T17:45:58;99065.59;;;5.13;100.00
64243;BME280;50573;51.512;5.386;2023-03-09T17:56:03;99062.38;;;5.27;100.00
64243;BME280;50573;51.512;5.386;2023-03-09T18:06:12;99059.31;;;5.16;100.00
64243;BME280;50573;51.512;5.386;2023-03-09T18:16:16;99047.31;;;5.17;100.00
64243;BME280;50573;51.512;5.386;2023-03-09T18:26:22;99030.69;;;5.19;100.00
64243;BME280;50573;51.512;5.386;2023-03-09T18:36:26;99031.22;;;5.26;100.00
64243;BME280;50573;51.512;5.386;2023-03-09T18:46:31;99003.66;;;5.31;100.00
64243;BME280;50573;51.512;5.386;2023-03-09T18:56:34;98982.50;;;5.30;100.00
64243;BME280;50573;51.512;5.386;2023-03-09T19:06:39;98945.44;;;5.30;100.00
64243;BME280;50573;51.512;5.386;2023-03-09T19:16:43;98951.97;;;5.42;100.00
64243;BME280;50573;51.512;5.386;2023-03-09T19:26:47;98936.78;;;5.35;100.00
64243;BME280;50573;51.512;5.386;2023-03-09T19:36:50;98903.34;;;5.33;100.00
64243;BME280;50573;51.512;5.386;2023-03-09T19:46:54;98881.56;;;5.27;100.00
64243;BME280;50573;51.512;5.386;2023-03-09T19:56:57;98852.88;;;5.12;100.00
64243;BME280;50573;51.512;5.386;2023-03-09T20:07:02;98834.28;;;5.14;100.00
64243;BME280;50573;51.512;5.386;2023-03-09T20:17:05;98803.53;;;5.11;100.00
64243;BME280;50573;51.512;5.386;2023-03-09T20:27:09;98789.19;;;5.23;100.00
64243;BME280;50573;51.512;5.386;2023-03-09T20:37:13;98768.66;;;5.35;100.00
64243;BME280;50573;51.512;5.386;2023-03-09T20:47:17;98740.19;;;5.25;100.00
64243;BME280;50573;51.512;5.386;2023-03-09T20:57:20;98751.94;;;5.49;100.00
64243;BME280;50573;51.512;5.386;2023-03-09T21:07:25;98697.16;;;5.48;100.00
64243;BME280;50573;51.512;5.386;2023-03-09T21:17:29;98684.13;;;5.74;100.00
64243;BME280;50573;51.512;5.386;2023-03-09T21:27:34;98666.91;;;5.90;100.00
64243;BME280;50573;51.512;5.386;2023-03-09T21:37:37;98643.31;;;5.99;100.00
64243;BME280;50573;51.512;5.386;2023-03-09T21:47:41;98622.91;;;5.98;100.00
64243;BME280;50573;51.512;5.386;2023-03-09T21:57:44;98598.13;;;6.09;100.00
64243;BME280;50573;51.512;5.386;2023-03-09T22:07:58;98560.53;;;6.20;100.00
64243;BME280;50573;51.512;5.386;2023-03-09T22:18:02;98535.81;;;6.36;100.00
64243;BME280;50573;51.512;5.386;2023-03-09T22:28:06;98518.53;;;6.42;100.00
64243;BME280;50573;51.512;5.386;2023-03-09T22:38:09;98496.94;;;6.57;100.00
64243;BME280;50573;51.512;5.386;2023-03-09T22:48:14;98451.31;;;6.73;100.00
64243;BME280;50573;51.512;5.386;2023-03-09T22:58:17;98458.81;;;6.93;100.00
64243;BME280;50573;51.512;5.386;2023-03-09T23:08:21;98433.03;;;7.70;100.00
64243;BME280;50573;51.512;5.386;2023-03-09T23:18:24;98441.91;;;7.71;100.00
64243;BME280;50573;51.512;5.386;2023-03-09T23:28:29;98459.97;;;7.45;100.00
64243;BME280;50573;51.512;5.386;2023-03-09T23:38:32;98467.81;;;7.28;100.00
64243;BME280;50573;51.512;5.386;2023-03-09T23:48:37;98457.13;;;7.10;100.00
64243;BME280;50573;51.512;5.386;2023-03-09T23:58:41;98467.72;;;7.08;100.00
